UDYZ/EVN METAR and TAF weather

Enter ICAO airport designator
Station Type Date Time Source
UDYZ METAR 2019/08/25 14:00 UTC NOAA

UDYZ 251400Z VRB04G16KT 9999 FEW040TCU 33/08 Q1011 R09/010070 NOSIG


Station Type Date Time Source
UDYZ Decoded METAR 2019/08/25 14:00 UTC NOAA

Station name not available
Aug 25, 2019 - 10:00 AM EDT / 2019.08.25 1400 UTC
Wind: Variable at 5 MPH (4 KT) gusting to 18 MPH (16 KT):0
Visibility: greater than 7 mile(s):0
Sky conditions: mostly clear
Weather: Towering cumulus clouds observed
Temperature: 91 F (33 C)
Dew Point: 46 F (8 C)
Relative Humidity: 21%
Pressure (altimeter): 29.85 in. Hg (1011 hPa)
ob: UDYZ 251400Z VRB04G16KT 9999 FEW040TCU 33/08 Q1011 R09/010070 NOSIG
cycle: 14

Station Type Date Time Source
UDYZ TAF 2019/08/25 12:00 UTC NOAA

TAF UDYZ 251120Z 2512/2612 22006KT 9999 FEW040
TEMPO 2511/2520 VRB24KT -TSRA BKN030CB

Example: see airport list